Time;durP1;ratioP1;P1;durP2;ratioP2;P2;SDS_P1;SDS_P2;PMS_P1;PMS_P2;Temp;Humidity;BMP_temperature;BMP_pressure;BME280_temperature;BME280_humidity;BME280_pressure;Samples;Min_cycle;Max_cycle;Signal;HPM_P1;HPM_P2
2021/07/27 00:02:26;;;;;;;;;;;;;;;23.17;53.93;101178.69;5053164;28;1558;-41
2021/07/27 00:04:53;;;;;;;;;;;;;;;23.12;54.21;101180.16;5053515;28;1670;-41
2021/07/27 00:07:20;;;;;;;;;;;;;;;23.14;54.04;101167.34;5053179;28;1911;-41
2021/07/27 00:12:32;;;;;;;;;;;;;;;23.10;53.98;101155.19;5048755;28;2633;-40
2021/07/27 00:15:01;;;;;;;;;;;;;;;23.13;53.98;101171.06;5053032;28;1696;-40
2021/07/27 00:17:29;;;;;;;;;;;;;;;22.95;54.19;101166.47;5048456;28;1821;-41
2021/07/27 00:19:57;;;;;;;;;;;;;;;22.99;53.99;101165.16;5053205;28;2028;-41
2021/07/27 00:22:25;;;;;;;;;;;;;;;22.93;53.88;101184.66;5052956;28;1671;-42
2021/07/27 00:24:54;;;;;;;;;;;;;;;23.02;53.59;101183.78;5049781;28;1081;-41
2021/07/27 00:27:23;;;;;;;;;;;;;;;23.05;53.92;101171.00;5052935;28;1803;-41
2021/07/27 00:29:53;;;;;;;;;;;;;;;23.03;53.96;101185.47;5053459;28;1897;-41
2021/07/27 00:32:20;;;;;;;;;;;;;;;23.08;53.59;101173.38;5044813;28;1914;-41
2021/07/27 00:34:48;;;;;;;;;;;;;;;22.95;53.92;101179.94;5052804;28;1745;-41
2021/07/27 00:37:18;;;;;;;;;;;;;;;23.00;53.78;101172.28;5051726;28;1674;-41
2021/07/27 00:39:47;;;;;;;;;;;;;;;23.05;53.86;101177.22;5053258;28;1543;-41
2021/07/27 00:42:22;;;;;;;;;;;;;;;22.89;53.99;101175.16;5053242;28;1615;-41
2021/07/27 00:44:49;;;;;;;;;;;;;;;22.86;54.12;101167.41;5052557;28;1665;-41
2021/07/27 00:47:16;;;;;;;;;;;;;;;22.88;54.12;101178.00;5052989;28;1555;-41
2021/07/27 00:49:46;;;;;;;;;;;;;;;22.89;54.45;101164.38;5052475;28;1612;-41
2021/07/27 00:52:15;;;;;;;;;;;;;;;22.92;54.29;101164.09;5047730;28;1973;-41
2021/07/27 00:54:42;;;;;;;;;;;;;;;22.97;54.16;101177.13;5053153;28;1741;-41
2021/07/27 00:57:11;;;;;;;;;;;;;;;23.10;53.96;101179.47;5052747;28;2098;-41
2021/07/27 00:59:40;;;;;;;;;;;;;;;23.01;53.71;101167.72;5039692;28;1914;-41
2021/07/27 01:02:09;;;;;;;;;;;;;;;22.94;54.02;101166.63;5052636;28;1808;-41
2021/07/27 01:04:39;;;;;;;;;;;;;;;22.94;53.84;101172.88;5052650;28;1934;-41
2021/07/27 01:07:08;;;;;;;;;;;;;;;22.92;53.81;101174.88;5052503;28;2411;-41
2021/07/27 01:09:35;;;;;;;;;;;;;;;22.95;54.04;101163.78;5051731;28;1697;-41
2021/07/27 01:12:02;;;;;;;;;;;;;;;22.85;54.24;101157.59;5051857;28;1926;-41
2021/07/27 01:14:29;;;;;;;;;;;;;;;22.75;53.99;101178.38;5052174;28;1818;-41
2021/07/27 01:17:02;;;;;;;;;;;;;;;22.71;54.44;101185.91;5051980;28;1813;-41
2021/07/27 01:19:41;;;;;;;;;;;;;;;22.55;54.40;101183.88;5052953;28;1356;-41
2021/07/27 01:42:08;;;;;;;;;;;;;;;22.81;54.09;101134.63;5036282;28;1677;-42
2021/07/27 01:44:35;;;;;;;;;;;;;;;22.81;53.90;101150.81;5051108;28;1776;-41
2021/07/27 01:47:02;;;;;;;;;;;;;;;22.87;53.95;101144.81;5052368;28;1369;-41
2021/07/27 01:49:28;;;;;;;;;;;;;;;22.80;53.96;101155.38;5051791;28;1839;-41
2021/07/27 01:51:57;;;;;;;;;;;;;;;22.78;54.06;101159.19;5048487;28;1901;-41
2021/07/27 01:54:40;;;;;;;;;;;;;;;22.85;54.03;101160.28;5052008;28;1742;-41
2021/07/27 01:57:06;;;;;;;;;;;;;;;22.78;53.85;101156.50;5049049;28;1781;-41
2021/07/27 01:59:33;;;;;;;;;;;;;;;22.84;53.81;101159.44;5052295;28;1672;-41
2021/07/27 02:01:59;;;;;;;;;;;;;;;22.87;54.07;101155.59;5142405;23;3809;-41
2021/07/27 02:04:27;;;;;;;;;;;;;;;22.90;54.27;101170.63;5041485;28;1773;-41
2021/07/27 02:06:53;;;;;;;;;;;;;;;22.83;54.04;101144.25;5047069;28;1687;-41
2021/07/27 02:09:20;;;;;;;;;;;;;;;22.80;54.04;101132.91;5049489;28;1856;-41
2021/07/27 02:11:59;;;;;;;;;;;;;;;22.84;54.14;101145.13;5043817;28;1767;-40
2021/07/27 02:15:03;;;;;;;;;;;;;;;22.91;54.09;101145.38;5053349;28;1418;-40
2021/07/27 02:17:16;;;;;;;;;;;;;;;22.88;54.04;101146.53;5051934;28;1784;-41
2021/07/27 02:19:43;;;;;;;;;;;;;;;22.90;53.91;101149.91;5051310;28;1677;-41
2021/07/27 02:22:13;;;;;;;;;;;;;;;22.78;54.17;101145.72;5050589;28;1959;-41
2021/07/27 02:24:40;;;;;;;;;;;;;;;22.74;54.49;101147.88;5050271;28;1628;-40
2021/07/27 02:27:11;;;;;;;;;;;;;;;22.76;54.16;101156.66;5048498;28;1559;-41
2021/07/27 02:29:38;;;;;;;;;;;;;;;22.52;54.53;101143.75;5041116;28;1596;-40
2021/07/27 02:32:07;;;;;;;;;;;;;;;22.50;55.19;101148.44;5045890;28;1995;-41
2021/07/27 02:34:33;;;;;;;;;;;;;;;22.59;54.88;101144.84;5038963;28;1699;-40
2021/07/27 02:39:42;;;;;;;;;;;;;;;22.51;55.13;101160.91;5053731;28;1757;-41
2021/07/27 02:42:17;;;;;;;;;;;;;;;22.35;55.39;101160.69;5050580;28;1993;-41
2021/07/27 02:44:43;;;;;;;;;;;;;;;22.39;55.08;101159.41;5046307;28;1735;-40
2021/07/27 02:47:10;;;;;;;;;;;;;;;22.49;54.76;101157.50;5036232;28;1754;-40
2021/07/27 02:49:37;;;;;;;;;;;;;;;22.56;55.01;101164.00;5047558;28;1693;-41
2021/07/27 02:52:04;;;;;;;;;;;;;;;22.55;54.84;101148.81;5036803;28;1802;-41
2021/07/27 02:54:34;;;;;;;;;;;;;;;22.59;54.69;101169.09;5047111;28;2054;-40
2021/07/27 02:57:02;;;;;;;;;;;;;;;22.59;54.65;101161.00;5040870;28;1888;-40
2021/07/27 02:59:32;;;;;;;;;;;;;;;22.44;55.20;101160.66;5050003;28;1768;-40
2021/07/27 03:02:00;;;;;;;;;;;;;;;22.42;55.00;101175.25;5053594;28;1343;-40
2021/07/27 03:04:27;;;;;;;;;;;;;;;22.43;54.97;101182.38;5042265;28;2029;-40
2021/07/27 03:06:55;;;;;;;;;;;;;;;22.55;54.89;101164.16;5028872;28;2082;-40
2021/07/27 03:09:25;;;;;;;;;;;;;;;22.63;54.73;101170.47;5020818;28;1711;-40
2021/07/27 03:12:04;;;;;;;;;;;;;;;22.53;54.70;101183.16;5032225;28;1618;-41
2021/07/27 03:14:43;;;;;;;;;;;;;;;22.40;55.63;101178.13;5027376;28;1902;-41
2021/07/27 03:17:09;;;;;;;;;;;;;;;22.40;55.16;101178.13;5019495;28;1972;-40
2021/07/27 03:19:37;;;;;;;;;;;;;;;22.39;55.31;101178.28;5014352;28;1019;-40
2021/07/27 03:22:05;;;;;;;;;;;;;;;22.45;55.04;101183.06;5020110;28;1813;-41
2021/07/27 03:24:32;;;;;;;;;;;;;;;22.54;55.31;101179.47;5015147;28;1521;-41
2021/07/27 03:26:59;;;;;;;;;;;;;;;22.66;54.87;101176.56;5021560;28;2050;-40
2021/07/27 03:29:26;;;;;;;;;;;;;;;22.60;55.08;101175.31;5022745;28;1968;-40
2021/07/27 03:31:56;;;;;;;;;;;;;;;22.52;55.86;101168.00;5014142;28;1881;-40
2021/07/27 03:34:23;;;;;;;;;;;;;;;22.60;55.34;101153.75;5014628;28;2052;-40
2021/07/27 03:36:51;;;;;;;;;;;;;;;22.63;54.84;101159.69;5028166;28;1805;-41
2021/07/27 03:39:21;;;;;;;;;;;;;;;22.54;55.29;101174.09;5014279;28;1980;-40
2021/07/27 03:41:47;;;;;;;;;;;;;;;22.64;55.11;101182.09;5022220;28;1546;-40
2021/07/27 03:44:16;;;;;;;;;;;;;;;22.65;55.02;101164.94;5031431;28;2222;-40
2021/07/27 03:46:52;;;;;;;;;;;;;;;22.53;55.19;101169.69;5030312;28;1981;-40
2021/07/27 03:49:34;;;;;;;;;;;;;;;22.53;55.18;101175.06;5030527;28;1766;-41
2021/07/27 03:52:07;;;;;;;;;;;;;;;22.51;55.14;101174.38;5027992;28;1546;-41
2021/07/27 03:54:35;;;;;;;;;;;;;;;22.52;55.12;101173.41;5022884;28;1910;-40
2021/07/27 03:57:08;;;;;;;;;;;;;;;22.54;55.68;101176.78;5019741;28;1977;-40
2021/07/27 03:59:35;;;;;;;;;;;;;;;22.74;55.22;101160.50;5015007;28;2840;-41
2021/07/27 04:02:01;;;;;;;;;;;;;;;22.73;55.06;101175.81;5010321;28;1319;-41
2021/07/27 04:04:28;;;;;;;;;;;;;;;22.81;54.98;101162.44;5019438;28;2069;-41
2021/07/27 04:06:54;;;;;;;;;;;;;;;22.80;54.75;101170.66;5026988;28;1623;-40
2021/07/27 04:09:22;;;;;;;;;;;;;;;22.90;54.91;101166.09;5020697;28;1809;-41
2021/07/27 04:11:49;;;;;;;;;;;;;;;22.91;55.04;101161.53;5020689;28;1759;-41
2021/07/27 04:14:15;;;;;;;;;;;;;;;22.95;55.01;101163.78;5028410;28;1981;-41
2021/07/27 04:16:41;;;;;;;;;;;;;;;23.14;54.67;101167.34;5021616;28;1519;-41
2021/07/27 04:19:08;;;;;;;;;;;;;;;23.17;54.59;101153.56;5020559;28;1767;-41
2021/07/27 04:21:35;;;;;;;;;;;;;;;23.20;54.51;101167.63;5024191;28;1944;-41
2021/07/27 04:24:02;;;;;;;;;;;;;;;23.08;54.89;101178.75;5025288;28;1991;-40
2021/07/27 04:26:31;;;;;;;;;;;;;;;23.08;54.94;101181.47;5025428;28;1925;-41
2021/07/27 04:28:58;;;;;;;;;;;;;;;23.14;54.35;101154.75;5022063;28;1772;-41
2021/07/27 04:31:24;;;;;;;;;;;;;;;23.28;54.29;101169.56;5018106;28;1574;-40
2021/07/27 04:33:51;;;;;;;;;;;;;;;23.29;54.12;101167.69;5018247;28;1898;-40
2021/07/27 04:36:17;;;;;;;;;;;;;;;23.09;54.88;101180.47;5020420;28;1902;-41
2021/07/27 04:38:44;;;;;;;;;;;;;;;22.83;55.69;101165.84;5026920;28;1925;-40
2021/07/27 04:41:11;;;;;;;;;;;;;;;23.09;55.06;101177.78;5013790;28;1804;-41
2021/07/27 04:43:39;;;;;;;;;;;;;;;23.14;54.64;101173.63;5025138;28;1707;-40
2021/07/27 04:46:06;;;;;;;;;;;;;;;23.18;54.65;101166.09;5019602;28;1985;-41
2021/07/27 04:48:33;;;;;;;;;;;;;;;23.41;53.91;101166.44;5020581;28;1898;-41
2021/07/27 04:50:59;;;;;;;;;;;;;;;23.57;53.97;101173.84;5024097;28;1854;-40
2021/07/27 04:53:29;;;;;;;;;;;;;;;23.59;53.52;101159.19;5022086;28;1975;-41
2021/07/27 04:55:59;;;;;;;;;;;;;;;23.68;53.44;101161.97;5032014;28;1561;-41
2021/07/27 04:58:25;;;;;;;;;;;;;;;23.79;53.38;101156.31;5020820;28;1879;-40
2021/07/27 05:00:53;;;;;;;;;;;;;;;23.91;52.98;101159.63;5022957;28;2082;-41
2021/07/27 05:03:19;;;;;;;;;;;;;;;23.99;52.58;101162.38;5031379;28;1448;-40
2021/07/27 05:05:47;;;;;;;;;;;;;;;24.10;52.45;101159.41;5026112;28;1792;-41
2021/07/27 05:08:14;;;;;;;;;;;;;;;24.06;52.38;101174.25;5027679;28;1906;-41
2021/07/27 05:10:42;;;;;;;;;;;;;;;24.03;52.54;101177.25;5014006;28;1762;-40
2021/07/27 05:13:10;;;;;;;;;;;;;;;24.06;52.82;101173.41;5021408;28;1977;-41
2021/07/27 05:15:36;;;;;;;;;;;;;;;24.10;52.86;101174.78;5028221;28;1818;-41
2021/07/27 05:18:04;;;;;;;;;;;;;;;24.13;53.15;101171.75;5020848;28;2401;-41
2021/07/27 05:20:31;;;;;;;;;;;;;;;24.11;53.05;101162.94;5020221;28;1755;-41
2021/07/27 05:22:58;;;;;;;;;;;;;;;24.12;53.04;101165.50;5022130;28;1800;-41
2021/07/27 05:25:24;;;;;;;;;;;;;;;24.15;53.16;101167.91;5031269;28;1358;-41
2021/07/27 05:27:51;;;;;;;;;;;;;;;24.21;53.18;101171.78;5027494;28;1763;-41
2021/07/27 05:30:31;;;;;;;;;;;;;;;24.14;52.87;101163.47;5027645;28;2035;-40
2021/07/27 05:33:01;;;;;;;;;;;;;;;24.16;52.88;101158.75;5029317;28;1963;-40
2021/07/27 05:35:28;;;;;;;;;;;;;;;24.28;52.98;101164.75;5023778;28;1586;-41
2021/07/27 05:37:55;;;;;;;;;;;;;;;24.29;53.14;101162.88;5020063;28;1802;-41
2021/07/27 05:40:21;;;;;;;;;;;;;;;24.32;52.90;101179.63;5025562;28;1808;-41
2021/07/27 05:42:48;;;;;;;;;;;;;;;24.29;53.03;101173.69;5020325;28;1745;-41
2021/07/27 05:45:14;;;;;;;;;;;;;;;24.24;53.36;101166.06;5026486;28;1748;-41
2021/07/27 05:47:41;;;;;;;;;;;;;;;23.99;53.55;101171.34;5027650;28;1756;-40
2021/07/27 05:50:09;;;;;;;;;;;;;;;23.89;53.49;101186.78;5025090;28;1754;-42
2021/07/27 05:52:37;;;;;;;;;;;;;;;23.98;53.67;101174.19;5031247;28;1546;-41
2021/07/27 05:55:04;;;;;;;;;;;;;;;24.16;53.52;101184.94;5029389;28;1910;-41
2021/07/27 05:57:30;;;;;;;;;;;;;;;24.16;53.65;101177.69;5020371;28;1851;-40
2021/07/27 05:59:57;;;;;;;;;;;;;;;24.20;53.82;101186.31;5026196;28;1790;-41
2021/07/27 06:02:24;;;;;;;;;;;;;;;24.25;54.00;101177.72;5022869;28;1783;-41
2021/07/27 06:04:50;;;;;;;;;;;;;;;24.30;53.87;101202.44;5022110;28;2101;-41
2021/07/27 06:07:16;;;;;;;;;;;;;;;24.31;53.36;101198.69;5027137;28;1752;-41
2021/07/27 06:09:44;;;;;;;;;;;;;;;24.41;53.17;101200.31;5034708;28;1730;-41
2021/07/27 06:12:12;;;;;;;;;;;;;;;24.39;53.44;101196.03;5023264;28;1809;-41
2021/07/27 06:14:39;;;;;;;;;;;;;;;24.47;53.46;101203.34;5022826;28;1902;-41
2021/07/27 06:17:05;;;;;;;;;;;;;;;24.52;53.28;101201.06;5025110;28;1803;-40
2021/07/27 06:19:32;;;;;;;;;;;;;;;24.53;53.03;101190.09;5024208;28;1762;-41
2021/07/27 06:21:58;;;;;;;;;;;;;;;24.54;53.67;101186.34;5029000;28;1309;-41
2021/07/27 06:24:24;;;;;;;;;;;;;;;24.57;53.24;101182.47;5023485;28;1781;-41
2021/07/27 06:26:55;;;;;;;;;;;;;;;24.57;53.86;101174.34;5017476;28;1693;-41
2021/07/27 06:29:21;;;;;;;;;;;;;;;24.64;53.40;101166.47;5028642;28;2295;-41
2021/07/27 06:31:48;;;;;;;;;;;;;;;24.64;53.48;101156.47;5027004;28;1744;-41
2021/07/27 06:34:14;;;;;;;;;;;;;;;24.62;53.76;101182.84;5024616;28;1983;-42
2021/07/27 06:36:41;;;;;;;;;;;;;;;24.63;53.97;101178.28;5030405;28;1531;-41
2021/07/27 06:39:11;;;;;;;;;;;;;;;24.71;53.45;101190.00;5020992;28;1725;-41
2021/07/27 06:41:38;;;;;;;;;;;;;;;24.81;53.66;101184.44;5017600;28;1966;-40
2021/07/27 06:44:13;;;;;;;;;;;;;;;24.83;53.98;101181.56;5023680;28;1636;-41
2021/07/27 06:46:43;;;;;;;;;;;;;;;24.79;54.10;101176.50;5033408;28;1672;-41
2021/07/27 06:49:10;;;;;;;;;;;;;;;24.85;53.80;101161.47;5034001;28;1577;-41
2021/07/27 06:51:40;;;;;;;;;;;;;;;24.83;53.90;101170.75;5032326;28;2241;-41
2021/07/27 06:54:10;;;;;;;;;;;;;;;24.88;53.92;101176.50;5029196;28;1995;-41
2021/07/27 06:56:39;;;;;;;;;;;;;;;24.91;54.45;101158.09;5032515;28;2392;-40
2021/07/27 06:59:15;;;;;;;;;;;;;;;24.93;54.15;101166.91;5016281;28;1754;-41
2021/07/27 07:01:42;;;;;;;;;;;;;;;24.99;54.33;101168.94;5029930;28;1554;-41
2021/07/27 07:04:11;;;;;;;;;;;;;;;25.02;54.81;101163.19;5027660;28;1635;-41
2021/07/27 07:06:38;;;;;;;;;;;;;;;24.94;54.57;101146.94;5023761;28;2040;-41
2021/07/27 07:09:04;;;;;;;;;;;;;;;25.05;55.13;101170.13;5017799;28;1568;-41
2021/07/27 07:11:31;;;;;;;;;;;;;;;25.08;54.82;101152.72;5023784;28;1731;-41
2021/07/27 07:14:00;;;;;;;;;;;;;;;25.05;55.05;101153.91;5022906;28;1976;-41
2021/07/27 07:16:40;;;;;;;;;;;;;;;25.13;55.20;101164.75;5017773;28;1781;-41
2021/07/27 07:19:07;;;;;;;;;;;;;;;25.07;54.88;101167.25;5024987;28;1818;-41
2021/07/27 07:21:36;;;;;;;;;;;;;;;25.08;55.30;101160.84;5029663;28;1655;-41
2021/07/27 07:24:03;;;;;;;;;;;;;;;25.11;54.56;101149.66;5019462;28;1921;-41
2021/07/27 07:26:29;;;;;;;;;;;;;;;25.07;55.52;101162.69;5020759;28;1801;-41
2021/07/27 07:28:56;;;;;;;;;;;;;;;25.07;54.82;101151.88;5014365;28;1613;-40
2021/07/27 07:31:25;;;;;;;;;;;;;;;25.07;55.55;101145.59;5017610;28;1497;-40
2021/07/27 07:33:55;;;;;;;;;;;;;;;25.07;55.17;101140.19;5021429;28;1963;-40
2021/07/27 07:36:22;;;;;;;;;;;;;;;25.07;54.80;101141.06;5020500;28;2028;-40
2021/07/27 07:38:48;;;;;;;;;;;;;;;25.08;54.90;101147.31;5022997;28;1768;-40
2021/07/27 07:41:15;;;;;;;;;;;;;;;25.00;55.44;101140.84;5014375;28;1747;-41
2021/07/27 07:43:41;;;;;;;;;;;;;;;24.94;55.52;101159.63;5022565;28;1579;-40
2021/07/27 07:46:11;;;;;;;;;;;;;;;24.96;56.09;101130.53;5016609;28;1819;-40
2021/07/27 07:48:41;;;;;;;;;;;;;;;24.93;55.77;101137.13;5035931;28;1709;-41
2021/07/27 07:51:13;;;;;;;;;;;;;;;24.92;56.51;101143.53;5014766;28;1858;-40
2021/07/27 07:53:47;;;;;;;;;;;;;;;24.96;55.87;101152.19;5020858;28;1807;-40
2021/07/27 07:56:13;;;;;;;;;;;;;;;24.92;56.74;101135.44;5013488;28;1875;-41
2021/07/27 07:58:44;;;;;;;;;;;;;;;24.87;56.32;101143.22;5028753;28;1085;-40
2021/07/27 08:01:14;;;;;;;;;;;;;;;24.93;56.45;101149.78;5030996;28;1970;-40
2021/07/27 08:03:44;;;;;;;;;;;;;;;24.90;57.69;101150.16;5025418;28;1953;-40
2021/07/27 08:06:12;;;;;;;;;;;;;;;24.90;57.44;101150.97;5019801;28;1493;-40
2021/07/27 08:08:39;;;;;;;;;;;;;;;24.90;57.51;101150.97;5024139;28;1802;-40
2021/07/27 08:11:05;;;;;;;;;;;;;;;24.90;57.35;101148.28;5025401;28;1033;-40
2021/07/27 08:13:32;;;;;;;;;;;;;;;24.92;57.28;101140.00;5026785;28;1823;-40
2021/07/27 08:15:58;;;;;;;;;;;;;;;24.87;57.35;101155.88;5020062;28;2061;-41
2021/07/27 08:18:25;;;;;;;;;;;;;;;24.93;57.23;101149.78;5027382;28;2008;-40
2021/07/27 08:20:51;;;;;;;;;;;;;;;24.92;56.72;101154.38;5019800;28;1807;-40
2021/07/27 08:23:19;;;;;;;;;;;;;;;24.96;57.34;101144.91;5021763;28;1877;-40
2021/07/27 08:25:46;;;;;;;;;;;;;;;24.88;57.56;101155.72;5030725;28;1887;-40
2021/07/27 08:28:12;;;;;;;;;;;;;;;24.86;57.28;101144.22;5020994;28;2017;-41
2021/07/27 08:30:39;;;;;;;;;;;;;;;24.85;57.29;101161.47;5024938;28;1591;-40
2021/07/27 08:33:05;;;;;;;;;;;;;;;24.87;56.78;101148.63;5023513;28;1751;-40
2021/07/27 08:35:32;;;;;;;;;;;;;;;24.84;57.18;101140.81;5021053;28;1910;-40
2021/07/27 08:37:58;;;;;;;;;;;;;;;24.87;56.80;101148.63;5020353;28;1792;-40
2021/07/27 08:40:28;;;;;;;;;;;;;;;24.89;57.61;101165.53;5030295;28;1262;-40
2021/07/27 08:43:16;;;;;;;;;;;;;;;24.93;57.38;101156.06;5027206;28;1715;-41
2021/07/27 08:45:45;;;;;;;;;;;;;;;24.92;57.22;101154.38;5022390;28;1608;-40
2021/07/27 08:48:12;;;;;;;;;;;;;;;24.85;57.25;101158.75;5028061;28;1968;-40
2021/07/27 08:50:47;;;;;;;;;;;;;;;24.89;57.98;101154.72;5015943;28;1857;-40
2021/07/27 08:53:14;;;;;;;;;;;;;;;24.90;57.29;101144.72;5021724;28;1798;-40
2021/07/27 08:55:46;;;;;;;;;;;;;;;25.01;56.75;101149.84;5029217;28;1989;-40
2021/07/27 08:58:16;;;;;;;;;;;;;;;25.01;56.62;101141.72;5028940;28;2025;-40
2021/07/27 09:00:46;;;;;;;;;;;;;;;24.97;57.46;101143.91;5019091;28;1742;-40
2021/07/27 09:03:16;;;;;;;;;;;;;;;24.87;57.13;101145.91;5028758;28;1844;-40
2021/07/27 09:05:43;;;;;;;;;;;;;;;24.93;56.92;101145.25;5025976;28;1706;-40
2021/07/27 09:08:10;;;;;;;;;;;;;;;24.95;57.29;101143.22;5022596;28;1848;-40
2021/07/27 09:10:38;;;;;;;;;;;;;;;24.93;57.28;101120.91;5028210;28;1712;-40
2021/07/27 09:13:07;;;;;;;;;;;;;;;24.91;57.67;101125.63;5014988;28;1718;-40
2021/07/27 09:15:45;;;;;;;;;;;;;;;24.89;57.51;101122.25;5023570;28;1966;-39
2021/07/27 09:18:18;;;;;;;;;;;;;;;24.90;56.88;101128.50;5034752;28;1657;-40
2021/07/27 09:20:47;;;;;;;;;;;;;;;24.87;57.77;101135.09;5031717;28;1847;-40
2021/07/27 09:23:15;;;;;;;;;;;;;;;24.87;57.99;101140.50;5032147;28;1832;-40
2021/07/27 09:28:30;;;;;;;;;;;;;;;24.88;57.86;101130.53;5032506;28;2502;-40
2021/07/27 09:31:02;;;;;;;;;;;;;;;24.89;58.11;101138.47;5030467;28;2011;-40
2021/07/27 09:33:29;;;;;;;;;;;;;;;24.88;57.35;101135.94;5038319;28;1710;-39
2021/07/27 09:35:57;;;;;;;;;;;;;;;24.90;57.26;101125.78;5038865;28;1906;-39
2021/07/27 09:38:26;;;;;;;;;;;;;;;24.94;57.64;101130.69;5031850;28;1775;-39
2021/07/27 09:40:54;;;;;;;;;;;;;;;24.92;57.91;101132.72;5037998;28;1498;-39
2021/07/27 09:43:21;;;;;;;;;;;;;;;24.88;57.92;101115.13;5035595;28;2397;-40
2021/07/27 09:45:49;;;;;;;;;;;;;;;24.92;58.08;101127.31;5034039;28;1788;-40
2021/07/27 09:48:17;;;;;;;;;;;;;;;24.94;58.07;101111.75;5033095;28;1785;-40
2021/07/27 09:50:45;;;;;;;;;;;;;;;24.89;58.84;101111.44;5036132;28;1904;-40
2021/07/27 09:53:11;;;;;;;;;;;;;;;24.90;58.37;101099.59;5031962;28;1685;-40
2021/07/27 09:55:38;;;;;;;;;;;;;;;24.92;59.22;101123.78;5025938;28;1983;-40
2021/07/27 09:58:04;;;;;;;;;;;;;;;24.87;59.34;101093.66;5029857;28;2068;-40
2021/07/27 10:00:31;;;;;;;;;;;;;;;24.93;58.93;101093.84;5031805;28;2110;-40
2021/07/27 10:03:00;;;;;;;;;;;;;;;24.93;58.55;101093.84;5058222;28;1589;-40
2021/07/27 10:05:28;;;;;;;;;;;;;;;25.05;58.51;101088.97;5044710;28;1983;-40
2021/07/27 10:07:55;;;;;;;;;;;;;;;25.01;59.46;101083.03;5053469;28;1884;-40
2021/07/27 10:10:33;;;;;;;;;;;;;;;25.00;59.35;101086.75;5053034;28;1846;-40
2021/07/27 10:13:04;;;;;;;;;;;;;;;24.95;59.20;101091.81;5051461;28;1699;-40
2021/07/27 10:15:38;;;;;;;;;;;;;;;24.96;59.30;101085.38;5049134;28;1906;-40
2021/07/27 10:18:06;;;;;;;;;;;;;;;24.99;60.15;101079.66;5050669;28;1689;-40
2021/07/27 10:20:32;;;;;;;;;;;;;;;24.96;59.79;101092.66;5054828;28;1856;-40
2021/07/27 10:22:59;;;;;;;;;;;;;;;24.94;60.28;101071.19;5051018;28;1712;-40
2021/07/27 10:25:25;;;;;;;;;;;;;;;24.90;60.04;101083.34;5055155;28;1586;-40
2021/07/27 10:27:53;;;;;;;;;;;;;;;24.88;60.48;101071.00;5051308;28;1734;-40
2021/07/27 10:30:30;;;;;;;;;;;;;;;24.90;60.07;101072.53;5046569;28;1672;-40
2021/07/27 10:32:57;;;;;;;;;;;;;;;24.94;59.67;101073.88;5050818;28;1665;-40
2021/07/27 10:35:29;;;;;;;;;;;;;;;24.99;59.73;101068.81;5040936;28;2104;-40
2021/07/27 10:37:55;;;;;;;;;;;;;;;25.04;59.84;101071.03;5050578;28;1698;-40
2021/07/27 10:40:36;;;;;;;;;;;;;;;25.07;60.30;101059.00;5049128;28;1670;-40
2021/07/27 10:43:06;;;;;;;;;;;;;;;25.10;59.80;101074.91;5051586;28;1982;-40
2021/07/27 10:45:45;;;;;;;;;;;;;;;25.08;59.73;101072.38;5049923;28;1469;-40
2021/07/27 10:48:25;;;;;;;;;;;;;;;25.12;59.95;101070.19;5051580;28;1740;-40
2021/07/27 10:51:11;;;;;;;;;;;;;;;25.16;59.35;101074.25;5053835;28;1658;-40
2021/07/27 10:53:45;;;;;;;;;;;;;;;25.17;60.36;101070.53;5044973;28;1761;-40
2021/07/27 10:56:11;;;;;;;;;;;;;;;25.24;59.36;101068.03;5054863;28;1902;-40
2021/07/27 10:58:38;;;;;;;;;;;;;;;25.20;59.87;101065.59;5052363;28;1215;-40
2021/07/27 11:01:09;;;;;;;;;;;;;;;25.25;60.27;101066.97;5051515;28;1967;-40
2021/07/27 11:03:45;;;;;;;;;;;;;;;25.22;60.17;101056.50;5052179;28;1758;-40
2021/07/27 11:06:21;;;;;;;;;;;;;;;25.22;59.97;101068.19;5054496;28;1550;-40
2021/07/27 11:09:02;;;;;;;;;;;;;;;25.20;59.88;101049.38;5047398;28;1730;-41
2021/07/27 11:11:29;;;;;;;;;;;;;;;25.19;59.55;101063.94;5048790;28;1773;-40
2021/07/27 11:13:58;;;;;;;;;;;;;;;25.10;59.95;101053.28;5052069;28;1301;-41
2021/07/27 11:16:25;;;;;;;;;;;;;;;25.09;60.35;101036.19;5047628;28;2493;-40
2021/07/27 11:18:51;;;;;;;;;;;;;;;25.11;59.86;101054.94;5051081;28;1767;-41
2021/07/27 11:21:20;;;;;;;;;;;;;;;25.15;59.33;101029.25;5051242;28;1594;-40
2021/07/27 11:23:48;;;;;;;;;;;;;;;25.15;59.82;101035.50;5046195;28;1570;-40
2021/07/27 11:26:16;;;;;;;;;;;;;;;25.12;59.65;101043.97;5039447;28;1907;-41
2021/07/27 11:28:43;;;;;;;;;;;;;;;25.12;59.55;101051.25;5054629;28;1476;-40
2021/07/27 11:31:20;;;;;;;;;;;;;;;25.17;60.23;101043.47;5049303;28;1786;-41
2021/07/27 11:33:52;;;;;;;;;;;;;;;25.11;60.26;101049.53;5050452;28;1900;-41
2021/07/27 11:36:23;;;;;;;;;;;;;;;25.08;60.43;101050.72;5044698;28;1901;-40
2021/07/27 11:38:51;;;;;;;;;;;;;;;25.08;59.41;101030.94;5048964;28;1671;-40
2021/07/27 11:41:21;;;;;;;;;;;;;;;25.09;59.77;101036.19;5052325;28;1567;-40
2021/07/27 11:43:49;;;;;;;;;;;;;;;25.12;60.15;101048.53;5052474;28;1103;-40
2021/07/27 11:46:16;;;;;;;;;;;;;;;25.12;60.32;101045.81;5041154;28;2172;-40
2021/07/27 11:48:43;;;;;;;;;;;;;;;25.09;59.63;101035.31;5043918;28;1965;-41
2021/07/27 11:51:09;;;;;;;;;;;;;;;25.10;59.91;101032.47;5050679;28;1752;-40
2021/07/27 11:53:39;;;;;;;;;;;;;;;25.12;60.20;101024.19;5050600;28;1817;-40
2021/07/27 11:56:13;;;;;;;;;;;;;;;25.10;60.23;101040.56;5054546;28;1989;-40
2021/07/27 11:58:41;;;;;;;;;;;;;;;25.18;59.95;101056.81;5052850;28;1397;-41
2021/07/27 12:01:10;;;;;;;;;;;;;;;25.16;60.10;101047.19;5043818;28;1750;-40
2021/07/27 12:03:40;;;;;;;;;;;;;;;25.17;59.60;101038.06;5032496;28;2053;-40
2021/07/27 12:06:10;;;;;;;;;;;;;;;25.15;59.52;101030.09;5021057;28;1816;-40
2021/07/27 12:08:38;;;;;;;;;;;;;;;25.15;60.42;101031.97;5024137;28;1547;-40
2021/07/27 12:11:04;;;;;;;;;;;;;;;25.10;59.48;101018.09;5026749;28;1861;-40
2021/07/27 12:13:31;;;;;;;;;;;;;;;25.16;60.07;101030.94;5027048;28;2112;-41
2021/07/27 12:15:57;;;;;;;;;;;;;;;25.18;59.50;101028.91;5029390;28;1981;-40
2021/07/27 12:18:24;;;;;;;;;;;;;;;25.23;60.33;101015.75;5031130;28;1849;-40
2021/07/27 12:20:50;;;;;;;;;;;;;;;25.22;60.42;101027.59;5023984;28;1762;-40
2021/07/27 12:23:20;;;;;;;;;;;;;;;25.25;60.62;101034.50;5027386;28;1757;-40
2021/07/27 12:25:48;;;;;;;;;;;;;;;25.24;60.54;101024.72;5033878;28;1211;-40
2021/07/27 12:28:14;;;;;;;;;;;;;;;25.22;60.38;101022.16;5028484;28;1811;-41
2021/07/27 12:30:41;;;;;;;;;;;;;;;25.24;60.70;101012.00;5029049;28;1734;-40
2021/07/27 12:33:10;;;;;;;;;;;;;;;25.23;59.88;101007.63;5025938;28;1862;-40
2021/07/27 12:35:37;;;;;;;;;;;;;;;25.28;59.79;101001.69;5026567;28;1917;-40
2021/07/27 12:38:04;;;;;;;;;;;;;;;25.22;60.48;100997.81;5029970;28;1824;-40
2021/07/27 12:40:30;;;;;;;;;;;;;;;25.17;60.14;100984.78;5023740;28;1844;-40
2021/07/27 12:42:58;;;;;;;;;;;;;;;25.19;60.41;100998.13;5029108;28;1797;-40
2021/07/27 12:45:25;;;;;;;;;;;;;;;25.20;60.33;100988.97;5030226;28;1805;-40
2021/07/27 12:47:51;;;;;;;;;;;;;;;25.23;60.75;100991.41;5029126;28;1716;-41
2021/07/27 12:50:18;;;;;;;;;;;;;;;25.21;60.17;100990.69;5029217;28;1631;-41
2021/07/27 12:52:44;;;;;;;;;;;;;;;25.24;60.85;100990.38;5020914;28;1745;-41
2021/07/27 12:55:11;;;;;;;;;;;;;;;25.23;60.40;100990.53;5023273;28;1355;-41
2021/07/27 12:57:38;;;;;;;;;;;;;;;25.20;60.66;100975.44;5027805;28;1902;-41
2021/07/27 13:00:07;;;;;;;;;;;;;;;25.20;60.90;100980.88;5025085;28;1821;-40
2021/07/27 13:02:33;;;;;;;;;;;;;;;25.27;60.02;101000.00;5027749;28;1385;-40
2021/07/27 13:05:01;;;;;;;;;;;;;;;25.19;60.59;100971.06;5028725;28;1857;-40
2021/07/27 13:07:29;;;;;;;;;;;;;;;25.19;60.73;100980.03;5027731;28;1509;-41
2021/07/27 13:09:56;;;;;;;;;;;;;;;25.21;60.14;100979.88;5027457;28;1689;-40
2021/07/27 13:12:23;;;;;;;;;;;;;;;25.22;59.97;100980.72;5028428;28;1899;-40
2021/07/27 13:14:49;;;;;;;;;;;;;;;25.22;60.19;100980.72;5028299;28;2045;-41
2021/07/27 13:17:21;;;;;;;;;;;;;;;25.20;60.99;100975.44;5025962;28;1906;-40
2021/07/27 13:19:51;;;;;;;;;;;;;;;25.16;60.45;100966.00;5023373;28;1755;-40
2021/07/27 13:22:23;;;;;;;;;;;;;;;25.17;60.36;100967.69;5026458;28;1550;-41
2021/07/27 13:24:51;;;;;;;;;;;;;;;25.14;61.07;100963.44;5014690;28;1709;-40